sensor_id;sensor_type;location;lat;lon;timestamp;P1;P2;P0
74434;PMS7003;62867;52.038;29.256;2023-02-15T00:01:23;4.6;3.2;2
74434;PMS7003;62867;52.038;29.256;2023-02-15T00:06:41;5.2;3.8;2
74434;PMS7003;62867;52.038;29.256;2023-02-15T00:11:25;7;3.6;1.6
74434;PMS7003;62867;52.038;29.256;2023-02-15T00:16:35;5.6;4.6;2.2
74434;PMS7003;62867;52.038;29.256;2023-02-15T00:21:35;7.2;4.2;1.8
74434;PMS7003;62867;52.038;29.256;2023-02-15T00:26:23;6.4;4.6;2.2
74434;PMS7003;62867;52.038;29.256;2023-02-15T00:31:57;5.8;4;2.2
74434;PMS7003;62867;52.038;29.256;2023-02-15T00:36:55;6.8;4;1.6
74434;PMS7003;62867;52.038;29.256;2023-02-15T00:41:31;6;3.3;1.5
74434;PMS7003;62867;52.038;29.256;2023-02-15T00:46:57;6;3.2;1.4
74434;PMS7003;62867;52.038;29.256;2023-02-15T00:51:57;3;2.8;1.4
74434;PMS7003;62867;52.038;29.256;2023-02-15T00:56:35;3.8;2.4;1.8
74434;PMS7003;62867;52.038;29.256;2023-02-15T01:01:12;4.8;2.8;1.4
74434;PMS7003;62867;52.038;29.256;2023-02-15T01:06:57;5.2;2.8;1
74434;PMS7003;62867;52.038;29.256;2023-02-15T01:11:12;2.6;1.6;1
74434;PMS7003;62867;52.038;29.256;2023-02-15T01:16:43;3.2;1.8;0.8
74434;PMS7003;62867;52.038;29.256;2023-02-15T01:21:24;4.2;2.2;0.8
74434;PMS7003;62867;52.038;29.256;2023-02-15T01:26:45;4.4;3.2;1.6
74434;PMS7003;62867;52.038;29.256;2023-02-15T01:31:47;6.4;3.8;1.8
74434;PMS7003;62867;52.038;29.256;2023-02-15T01:36:41;6.2;3.8;2
74434;PMS7003;62867;52.038;29.256;2023-02-15T01:41:57;5.5;3.8;2
74434;PMS7003;62867;52.038;29.256;2023-02-15T01:46:11;5.2;3.8;1.8
74434;PMS7003;62867;52.038;29.256;2023-02-15T01:51:20;5.2;3.6;1.6
74434;PMS7003;62867;52.038;29.256;2023-02-15T01:56:12;6.4;4.2;1.6
74434;PMS7003;62867;52.038;29.256;2023-02-15T02:01:47;4;3.2;1.4
74434;PMS7003;62867;52.038;29.256;2023-02-15T02:06:11;5;3.4;1.8
74434;PMS7003;62867;52.038;29.256;2023-02-15T02:11:11;4;2.8;1.6
74434;PMS7003;62867;52.038;29.256;2023-02-15T02:16:47;5.4;2;0.8
74434;PMS7003;62867;52.038;29.256;2023-02-15T02:21:52;3.6;2.4;1.2
74434;PMS7003;62867;52.038;29.256;2023-02-15T02:27:02;3.8;2.6;1.6
74434;PMS7003;62867;52.038;29.256;2023-02-15T02:31:37;4;2.4;1
74434;PMS7003;62867;52.038;29.256;2023-02-15T02:36:58;3.8;2.6;1.2
74434;PMS7003;62867;52.038;29.256;2023-02-15T02:41:30;4.3;2.3;1
74434;PMS7003;62867;52.038;29.256;2023-02-15T02:46:50;3.8;3.2;1.4
74434;PMS7003;62867;52.038;29.256;2023-02-15T02:51:11;4.4;2.6;1
74434;PMS7003;62867;52.038;29.256;2023-02-15T02:56:49;2.2;2.2;1
74434;PMS7003;62867;52.038;29.256;2023-02-15T03:01:27;4.6;2.6;0.8
74434;PMS7003;62867;52.038;29.256;2023-02-15T03:06:36;4.6;2.6;1.2
74434;PMS7003;62867;52.038;29.256;2023-02-15T03:11:43;3.4;2.2;1.2
74434;PMS7003;62867;52.038;29.256;2023-02-15T03:16:11;3.8;2.4;1.2
74434;PMS7003;62867;52.038;29.256;2023-02-15T03:22:00;4.2;2.4;1
74434;PMS7003;62867;52.038;29.256;2023-02-15T03:26:33;6.6;4;1.6
74434;PMS7003;62867;52.038;29.256;2023-02-15T03:31:58;4.6;3;1.8
74434;PMS7003;62867;52.038;29.256;2023-02-15T03:36:39;8.4;5.4;2.6
74434;PMS7003;62867;52.038;29.256;2023-02-15T03:41:42;10.5;7.3;4.5
74434;PMS7003;62867;52.038;29.256;2023-02-15T03:46:12;15.8;10.6;6.2
74434;PMS7003;62867;52.038;29.256;2023-02-15T03:51:48;12.4;10.8;6
74434;PMS7003;62867;52.038;29.256;2023-02-15T03:56:23;15.6;11.2;5.8
74434;PMS7003;62867;52.038;29.256;2023-02-15T04:01:44;13.4;9.6;5.8
74434;PMS7003;62867;52.038;29.256;2023-02-15T04:06:41;9.8;7.6;4.2
74434;PMS7003;62867;52.038;29.256;2023-02-15T04:11:55;9.2;7;5.2
74434;PMS7003;62867;52.038;29.256;2023-02-15T04:16:57;7.2;6;3.8
74434;PMS7003;62867;52.038;29.256;2023-02-15T04:21:43;6.8;5.4;2.8
74434;PMS7003;62867;52.038;29.256;2023-02-15T04:26:55;10.2;6.8;4.2
74434;PMS7003;62867;52.038;29.256;2023-02-15T04:31:11;7.2;6.4;3.8
74434;PMS7003;62867;52.038;29.256;2023-02-15T04:36:23;6.6;5.8;3
74434;PMS7003;62867;52.038;29.256;2023-02-15T04:41:47;7.4;5.8;3.4
74434;PMS7003;62867;52.038;29.256;2023-02-15T04:46:49;9.5;6.8;4
74434;PMS7003;62867;52.038;29.256;2023-02-15T04:51:37;9.6;6.6;3.8
74434;PMS7003;62867;52.038;29.256;2023-02-15T04:56:57;8;6;3.4
74434;PMS7003;62867;52.038;29.256;2023-02-15T05:01:35;8.8;6.4;3.4
74434;PMS7003;62867;52.038;29.256;2023-02-15T05:06:57;8;6.8;3.2
74434;PMS7003;62867;52.038;29.256;2023-02-15T05:11:45;9;7.4;3.8
74434;PMS7003;62867;52.038;29.256;2023-02-15T05:16:35;12.4;6.8;4.6
74434;PMS7003;62867;52.038;29.256;2023-02-15T05:21:35;8.8;6.4;3.8
74434;PMS7003;62867;52.038;29.256;2023-02-15T05:26:12;7.6;6;3.2
74434;PMS7003;62867;52.038;29.256;2023-02-15T05:31:23;6.8;6.2;3.6
74434;PMS7003;62867;52.038;29.256;2023-02-15T05:36:23;10.8;7.4;3.6
74434;PMS7003;62867;52.038;29.256;2023-02-15T05:41:41;8.8;8;4.4
74434;PMS7003;62867;52.038;29.256;2023-02-15T05:46:37;12.3;8.8;4.8
74434;PMS7003;62867;52.038;29.256;2023-02-15T05:51:55;12.6;8.6;5.2
74434;PMS7003;62867;52.038;29.256;2023-02-15T05:56:23;16.6;13.4;7.6
74434;PMS7003;62867;52.038;29.256;2023-02-15T06:01:43;18.6;15.8;9.4
74434;PMS7003;62867;52.038;29.256;2023-02-15T06:06:49;15;12;7.2
74434;PMS7003;62867;52.038;29.256;2023-02-15T06:11:23;15.8;11.2;6.8
74434;PMS7003;62867;52.038;29.256;2023-02-15T06:16:35;19;12.4;7
74434;PMS7003;62867;52.038;29.256;2023-02-15T06:21:37;14.2;10.8;6.8
74434;PMS7003;62867;52.038;29.256;2023-02-15T06:26:59;16.2;12.6;7.2
74434;PMS7003;62867;52.038;29.256;2023-02-15T06:31:55;15.8;12.6;7
74434;PMS7003;62867;52.038;29.256;2023-02-15T06:36:30;16.4;12.2;7
74434;PMS7003;62867;52.038;29.256;2023-02-15T06:41:11;12.8;10.2;5.6
74434;PMS7003;62867;52.038;29.256;2023-02-15T06:46:59;14.5;11;6.3
74434;PMS7003;62867;52.038;29.256;2023-02-15T06:51:35;9.6;8.2;5
74434;PMS7003;62867;52.038;29.256;2023-02-15T06:56:43;10.6;7;4.2
74434;PMS7003;62867;52.038;29.256;2023-02-15T07:01:35;11.2;8;4.2
74434;PMS7003;62867;52.038;29.256;2023-02-15T07:06:11;12.8;8;5.2
74434;PMS7003;62867;52.038;29.256;2023-02-15T07:11:35;9.4;5.8;2.6
74434;PMS7003;62867;52.038;29.256;2023-02-15T07:16:11;11.4;6.4;3.6
74434;PMS7003;62867;52.038;29.256;2023-02-15T07:21:55;8;5.2;2.2
74434;PMS7003;62867;52.038;29.256;2023-02-15T07:26:51;10.4;8.2;4.2
74434;PMS7003;62867;52.038;29.256;2023-02-15T07:31:31;11.6;8;3.8
74434;PMS7003;62867;52.038;29.256;2023-02-15T07:36:57;13.2;8.4;4.6
74434;PMS7003;62867;52.038;29.256;2023-02-15T07:41:55;10;6.4;3.2
74434;PMS7003;62867;52.038;29.256;2023-02-15T07:46:35;11.3;8.8;5
74434;PMS7003;62867;52.038;29.256;2023-02-15T07:51:19;11.6;7.6;3.8
74434;PMS7003;62867;52.038;29.256;2023-02-15T07:56:49;5.8;4;2.4
74434;PMS7003;62867;52.038;29.256;2023-02-15T08:01:11;6.8;4.2;2.4
74434;PMS7003;62867;52.038;29.256;2023-02-15T08:06:22;6;4;2
74434;PMS7003;62867;52.038;29.256;2023-02-15T08:11:36;6.8;4.8;2
74434;PMS7003;62867;52.038;29.256;2023-02-15T08:16:44;8.2;5.2;2.8
74434;PMS7003;62867;52.038;29.256;2023-02-15T08:21:48;7;3.4;1.6
74434;PMS7003;62867;52.038;29.256;2023-02-15T08:26:45;3.4;2;1.4
74434;PMS7003;62867;52.038;29.256;2023-02-15T08:31:54;5;3.2;1.8
74434;PMS7003;62867;52.038;29.256;2023-02-15T08:36:24;7.4;6.6;3.2
74434;PMS7003;62867;52.038;29.256;2023-02-15T08:41:48;6.4;3.8;2.4
74434;PMS7003;62867;52.038;29.256;2023-02-15T08:46:46;7.5;5;2.8
74434;PMS7003;62867;52.038;29.256;2023-02-15T08:51:49;6.8;4;2.6
74434;PMS7003;62867;52.038;29.256;2023-02-15T08:56:21;4.4;3;1.8
74434;PMS7003;62867;52.038;29.256;2023-02-15T09:01:34;7;4.2;2.4
74434;PMS7003;62867;52.038;29.256;2023-02-15T09:06:31;6;3.8;2
74434;PMS7003;62867;52.038;29.256;2023-02-15T09:11:34;8.4;5.4;2.6
74434;PMS7003;62867;52.038;29.256;2023-02-15T09:16:57;6.2;5.8;2.6
74434;PMS7003;62867;52.038;29.256;2023-02-15T09:21:12;5.8;3.4;2
74434;PMS7003;62867;52.038;29.256;2023-02-15T09:26:55;6.6;3.8;1.6
74434;PMS7003;62867;52.038;29.256;2023-02-15T09:31:24;4.2;3.8;2
74434;PMS7003;62867;52.038;29.256;2023-02-15T09:36:45;5.2;3.8;2.2
74434;PMS7003;62867;52.038;29.256;2023-02-15T09:41:16;7.4;4.6;2.6
74434;PMS7003;62867;52.038;29.256;2023-02-15T09:46:55;8.8;7.2;3.8
74434;PMS7003;62867;52.038;29.256;2023-02-15T09:51:27;6.8;4.3;2
74434;PMS7003;62867;52.038;29.256;2023-02-15T09:56:13;5.8;4.4;2.2
74434;PMS7003;62867;52.038;29.256;2023-02-15T10:01:48;4.8;3.2;2.2
74434;PMS7003;62867;52.038;29.256;2023-02-15T10:06:53;3.6;2.6;1.2
74434;PMS7003;62867;52.038;29.256;2023-02-15T10:12:03;5.6;4.4;2.2
74434;PMS7003;62867;52.038;29.256;2023-02-15T10:16:48;8.4;5.4;3
74434;PMS7003;62867;52.038;29.256;2023-02-15T10:22:02;5.8;4.6;2.6
74434;PMS7003;62867;52.038;29.256;2023-02-15T10:26:12;6.4;4.4;2.6
74434;PMS7003;62867;52.038;29.256;2023-02-15T10:31:45;8.6;7;4.2
74434;PMS7003;62867;52.038;29.256;2023-02-15T10:36:16;9.4;6.2;3.4
74434;PMS7003;62867;52.038;29.256;2023-02-15T10:41:51;6.2;4;2.2
74434;PMS7003;62867;52.038;29.256;2023-02-15T10:46:33;5.6;4.2;2.4
74434;PMS7003;62867;52.038;29.256;2023-02-15T10:51:38;4.5;3.8;1.5
74434;PMS7003;62867;52.038;29.256;2023-02-15T10:56:49;5.8;4.4;2.8
74434;PMS7003;62867;52.038;29.256;2023-02-15T11:02:00;5;4.6;2.8
74434;PMS7003;62867;52.038;29.256;2023-02-15T11:07:01;6.8;5.2;2.8
74434;PMS7003;62867;52.038;29.256;2023-02-15T11:11:47;7;5.4;3.8
74434;PMS7003;62867;52.038;29.256;2023-02-15T11:17:01;5;4.6;2.8
74434;PMS7003;62867;52.038;29.256;2023-02-15T11:21:24;8.2;7.2;4.2
74434;PMS7003;62867;52.038;29.256;2023-02-15T11:26:46;10.6;9.4;5.4
74434;PMS7003;62867;52.038;29.256;2023-02-15T11:31:37;14.8;13;8.4
74434;PMS7003;62867;52.038;29.256;2023-02-15T11:36:47;10.2;8;5.8
74434;PMS7003;62867;52.038;29.256;2023-02-15T11:41:38;20.6;17.4;10
74434;PMS7003;62867;52.038;29.256;2023-02-15T11:46:59;22.8;19.4;11.2
74434;PMS7003;62867;52.038;29.256;2023-02-15T11:51:35;29;24;14.8
74434;PMS7003;62867;52.038;29.256;2023-02-15T11:57:03;45.2;34;19.2
74434;PMS7003;62867;52.038;29.256;2023-02-15T12:01:44;30.8;22.6;13.4
74434;PMS7003;62867;52.038;29.256;2023-02-15T12:06:37;29.2;22;14.2
74434;PMS7003;62867;52.038;29.256;2023-02-15T12:11:22;16.6;13.8;8
74434;PMS7003;62867;52.038;29.256;2023-02-15T12:16:11;8.8;7.2;4.6
74434;PMS7003;62867;52.038;29.256;2023-02-15T12:21:42;6;4.8;2.8
74434;PMS7003;62867;52.038;29.256;2023-02-15T12:26:24;5.8;4.8;3.2
74434;PMS7003;62867;52.038;29.256;2023-02-15T12:31:32;5.6;4.8;2.8
74434;PMS7003;62867;52.038;29.256;2023-02-15T12:36:41;7.8;6.2;3.6
74434;PMS7003;62867;52.038;29.256;2023-02-15T12:42:00;5.4;4.2;2.2
74434;PMS7003;62867;52.038;29.256;2023-02-15T12:46:35;4;3.2;2.2
74434;PMS7003;62867;52.038;29.256;2023-02-15T12:51:46;4.5;3;2
74434;PMS7003;62867;52.038;29.256;2023-02-15T12:56:26;5.8;4.6;3
74434;PMS7003;62867;52.038;29.256;2023-02-15T13:01:12;11.8;9.6;5.2
74434;PMS7003;62867;52.038;29.256;2023-02-15T13:06:19;22.8;15.4;9.2
74434;PMS7003;62867;52.038;29.256;2023-02-15T13:11:13;19.4;14.6;8.2
74434;PMS7003;62867;52.038;29.256;2023-02-15T13:17:02;19.4;13.8;7.8
74434;PMS7003;62867;52.038;29.256;2023-02-15T13:22:02;11.4;8;4
74434;PMS7003;62867;52.038;29.256;2023-02-15T13:26:13;10.6;7.6;4.4
74434;PMS7003;62867;52.038;29.256;2023-02-15T13:32:01;9;7.4;4.2
74434;PMS7003;62867;52.038;29.256;2023-02-15T13:37:01;9.2;7;4.6
74434;PMS7003;62867;52.038;29.256;2023-02-15T13:41:43;9;6.6;4
74434;PMS7003;62867;52.038;29.256;2023-02-15T13:46:43;7.4;7;4.2
74434;PMS7003;62867;52.038;29.256;2023-02-15T13:51:49;10.5;7.8;4
74434;PMS7003;62867;52.038;29.256;2023-02-15T13:56:25;11;6;3
74434;PMS7003;62867;52.038;29.256;2023-02-15T14:01:23;10.6;7.8;4.4
74434;PMS7003;62867;52.038;29.256;2023-02-15T14:06:43;10.2;9.4;4.6
74434;PMS7003;62867;52.038;29.256;2023-02-15T14:11:52;13;9.4;6.2
74434;PMS7003;62867;52.038;29.256;2023-02-15T14:16:53;17.2;11.6;7.4
74434;PMS7003;62867;52.038;29.256;2023-02-15T14:21:34;12.8;11.4;6
74434;PMS7003;62867;52.038;29.256;2023-02-15T14:27:04;14.8;9.8;5.2
74434;PMS7003;62867;52.038;29.256;2023-02-15T14:31:34;12.8;11;6.4
74434;PMS7003;62867;52.038;29.256;2023-02-15T14:36:50;13.6;9.6;6
74434;PMS7003;62867;52.038;29.256;2023-02-15T14:41:42;16.4;12.8;7.2
74434;PMS7003;62867;52.038;29.256;2023-02-15T14:47:03;14.8;11.4;7.2
74434;PMS7003;62867;52.038;29.256;2023-02-15T14:51:58;15.4;10.8;6.4
74434;PMS7003;62867;52.038;29.256;2023-02-15T14:56:26;15.3;11;7
74434;PMS7003;62867;52.038;29.256;2023-02-15T15:01:37;14.8;10.6;5.4
74434;PMS7003;62867;52.038;29.256;2023-02-15T15:06:54;19.8;15;9.6
74434;PMS7003;62867;52.038;29.256;2023-02-15T15:11:36;19.2;16;10
74434;PMS7003;62867;52.038;29.256;2023-02-15T15:16:29;23.6;17.6;10.8
74434;PMS7003;62867;52.038;29.256;2023-02-15T15:22:03;25.4;18.2;10.4
74434;PMS7003;62867;52.038;29.256;2023-02-15T15:26:35;22.2;18;10
74434;PMS7003;62867;52.038;29.256;2023-02-15T15:31:51;23;18.6;10
74434;PMS7003;62867;52.038;29.256;2023-02-15T15:36:17;25.2;18;10
74434;PMS7003;62867;52.038;29.256;2023-02-15T15:41:51;23.4;17.4;10.6
74434;PMS7003;62867;52.038;29.256;2023-02-15T15:46:31;20.2;16;9.8
74434;PMS7003;62867;52.038;29.256;2023-02-15T15:51:23;20.4;17.2;11
74434;PMS7003;62867;52.038;29.256;2023-02-15T15:56:50;33.3;25.8;13.5
74434;PMS7003;62867;52.038;29.256;2023-02-15T16:01:47;27;22.8;13.2
74434;PMS7003;62867;52.038;29.256;2023-02-15T16:07:13;31.4;23.4;13.4
74434;PMS7003;62867;52.038;29.256;2023-02-15T16:11:33;28.6;22.4;11.8
74434;PMS7003;62867;52.038;29.256;2023-02-15T16:17:00;24.6;20.8;13
74434;PMS7003;62867;52.038;29.256;2023-02-15T16:21:28;24.6;19.6;10.8
74434;PMS7003;62867;52.038;29.256;2023-02-15T16:26:51;24.8;19.6;11.6
74434;PMS7003;62867;52.038;29.256;2023-02-15T16:31:38;23.4;18.6;10.4
74434;PMS7003;62867;52.038;29.256;2023-02-15T16:36:49;23;17.8;10.6
74434;PMS7003;62867;52.038;29.256;2023-02-15T16:41:26;21.4;15.6;8.6
74434;PMS7003;62867;52.038;29.256;2023-02-15T16:46:48;23;18.2;10.8
74434;PMS7003;62867;52.038;29.256;2023-02-15T16:51:53;23.2;15.6;9
74434;PMS7003;62867;52.038;29.256;2023-02-15T16:57:02;20.5;17.3;10.8
74434;PMS7003;62867;52.038;29.256;2023-02-15T17:02:03;25.2;18.4;11.2
74434;PMS7003;62867;52.038;29.256;2023-02-15T17:06:56;20.8;16;9.6
74434;PMS7003;62867;52.038;29.256;2023-02-15T17:11:59;37.6;27;15.4
74434;PMS7003;62867;52.038;29.256;2023-02-15T17:16:50;52.8;41.2;23.2
74434;PMS7003;62867;52.038;29.256;2023-02-15T17:21:40;40.8;32;20.8
74434;PMS7003;62867;52.038;29.256;2023-02-15T17:26:34;49.2;39;23.8
74434;PMS7003;62867;52.038;29.256;2023-02-15T17:31:48;39;30.2;18
74434;PMS7003;62867;52.038;29.256;2023-02-15T17:36:39;38.8;30;18.4
74434;PMS7003;62867;52.038;29.256;2023-02-15T17:42:01;37.6;27.8;17.8
74434;PMS7003;62867;52.038;29.256;2023-02-15T17:46:24;28;23.2;13.4
74434;PMS7003;62867;52.038;29.256;2023-02-15T17:52:03;26.8;22;12.8
74434;PMS7003;62867;52.038;29.256;2023-02-15T17:56:45;22.5;20;11.5
74434;PMS7003;62867;52.038;29.256;2023-02-15T18:01:13;23.4;18.8;11.6
74434;PMS7003;62867;52.038;29.256;2023-02-15T18:06:11;20;17;10.6
74434;PMS7003;62867;52.038;29.256;2023-02-15T18:11:25;24.4;18.4;10
74434;PMS7003;62867;52.038;29.256;2023-02-15T18:16:38;19;14.8;9.6
74434;PMS7003;62867;52.038;29.256;2023-02-15T18:21:49;18.4;13.8;8.4
74434;PMS7003;62867;52.038;29.256;2023-02-15T18:26:13;44.2;33.6;19.2
74434;PMS7003;62867;52.038;29.256;2023-02-15T18:31:37;36;27;15.2
74434;PMS7003;62867;52.038;29.256;2023-02-15T18:37:01;26.8;21.8;12.2
74434;PMS7003;62867;52.038;29.256;2023-02-15T18:41:14;19;14.2;8.6
74434;PMS7003;62867;52.038;29.256;2023-02-15T18:46:47;15.8;14.2;8
74434;PMS7003;62867;52.038;29.256;2023-02-15T18:51:37;16.2;12.8;7.6
74434;PMS7003;62867;52.038;29.256;2023-02-15T18:56:28;15.5;11.5;6.8
74434;PMS7003;62867;52.038;29.256;2023-02-15T19:01:21;17.2;13.4;7.4
74434;PMS7003;62867;52.038;29.256;2023-02-15T19:06:23;17.4;12.2;6.2
74434;PMS7003;62867;52.038;29.256;2023-02-15T19:11:47;16.4;12.4;8
74434;PMS7003;62867;52.038;29.256;2023-02-15T19:16:27;15.8;12;7.2
74434;PMS7003;62867;52.038;29.256;2023-02-15T19:21:33;16.6;11.4;7
74434;PMS7003;62867;52.038;29.256;2023-02-15T19:26:39;15.4;12.2;7.2
74434;PMS7003;62867;52.038;29.256;2023-02-15T19:32:01;16.8;12.4;7.6
74434;PMS7003;62867;52.038;29.256;2023-02-15T19:36:37;14.4;12.8;7.4
74434;PMS7003;62867;52.038;29.256;2023-02-15T19:41:47;16;12.8;7.4
74434;PMS7003;62867;52.038;29.256;2023-02-15T19:46:39;12.2;10.2;6.8
74434;PMS7003;62867;52.038;29.256;2023-02-15T19:51:11;13.4;10.8;7
74434;PMS7003;62867;52.038;29.256;2023-02-15T19:56:35;16;11.2;7
74434;PMS7003;62867;52.038;29.256;2023-02-15T20:01:21;14.5;11.5;7.8
74434;PMS7003;62867;52.038;29.256;2023-02-15T20:07:01;16.6;12.8;7.4
74434;PMS7003;62867;52.038;29.256;2023-02-15T20:12:05;16;12.6;7.2
74434;PMS7003;62867;52.038;29.256;2023-02-15T20:16:37;16.8;13.4;7.6
74434;PMS7003;62867;52.038;29.256;2023-02-15T20:22:01;14.2;10.8;6.4
74434;PMS7003;62867;52.038;29.256;2023-02-15T20:27:04;17;11.4;6.8
74434;PMS7003;62867;52.038;29.256;2023-02-15T20:31:21;13.4;10.4;6.6
74434;PMS7003;62867;52.038;29.256;2023-02-15T20:36:12;13.6;9.4;6
74434;PMS7003;62867;52.038;29.256;2023-02-15T20:41:59;14.4;11;6.8
74434;PMS7003;62867;52.038;29.256;2023-02-15T20:46:11;12.8;9.6;6.4
74434;PMS7003;62867;52.038;29.256;2023-02-15T20:51:39;12.2;9;6
74434;PMS7003;62867;52.038;29.256;2023-02-15T20:56:49;12.2;9.8;5.6
74434;PMS7003;62867;52.038;29.256;2023-02-15T21:01:45;14.3;9.5;5.8
74434;PMS7003;62867;52.038;29.256;2023-02-15T21:06:59;13.8;11.6;6.8
74434;PMS7003;62867;52.038;29.256;2023-02-15T21:11:37;12.2;10.6;6
74434;PMS7003;62867;52.038;29.256;2023-02-15T21:17:03;13.2;10.4;6
74434;PMS7003;62867;52.038;29.256;2023-02-15T21:21:25;16.4;11.8;7.2
74434;PMS7003;62867;52.038;29.256;2023-02-15T21:26:35;15.4;11.8;6.8
74434;PMS7003;62867;52.038;29.256;2023-02-15T21:31:53;16;12.6;7
74434;PMS7003;62867;52.038;29.256;2023-02-15T21:36:38;15.2;10.6;6.6
74434;PMS7003;62867;52.038;29.256;2023-02-15T21:41:14;14.8;9.4;6.4
74434;PMS7003;62867;52.038;29.256;2023-02-15T21:46:37;15.4;11.8;7.4
74434;PMS7003;62867;52.038;29.256;2023-02-15T21:51:45;15.4;12.2;6.8
74434;PMS7003;62867;52.038;29.256;2023-02-15T21:56:49;15.8;12.4;7.2
74434;PMS7003;62867;52.038;29.256;2023-02-15T22:01:47;17;12.8;8
74434;PMS7003;62867;52.038;29.256;2023-02-15T22:06:11;16.8;13.2;7.8
74434;PMS7003;62867;52.038;29.256;2023-02-15T22:11:59;16.8;12.6;7.4
74434;PMS7003;62867;52.038;29.256;2023-02-15T22:16:13;16.8;13.2;8.2
74434;PMS7003;62867;52.038;29.256;2023-02-15T22:21:47;16.8;14;8
74434;PMS7003;62867;52.038;29.256;2023-02-15T22:26:51;16.2;13.2;7.8
74434;PMS7003;62867;52.038;29.256;2023-02-15T22:31:49;18;14;9
74434;PMS7003;62867;52.038;29.256;2023-02-15T22:36:47;19;14.2;7
74434;PMS7003;62867;52.038;29.256;2023-02-15T22:41:47;19.8;15;9.2
74434;PMS7003;62867;52.038;29.256;2023-02-15T22:46:23;18.8;15.4;9
74434;PMS7003;62867;52.038;29.256;2023-02-15T22:52:04;21.4;14.2;8.8
74434;PMS7003;62867;52.038;29.256;2023-02-15T22:57:03;22.2;15.4;8.8
74434;PMS7003;62867;52.038;29.256;2023-02-15T23:01:25;21.5;14.3;8.8
74434;PMS7003;62867;52.038;29.256;2023-02-15T23:06:59;18.2;15.2;8.4
74434;PMS7003;62867;52.038;29.256;2023-02-15T23:11:11;20;17;10.2
74434;PMS7003;62867;52.038;29.256;2023-02-15T23:16:47;24.6;19.4;11.4
74434;PMS7003;62867;52.038;29.256;2023-02-15T23:21:27;23.6;18.2;11
74434;PMS7003;62867;52.038;29.256;2023-02-15T23:26:50;18.4;15.8;9.8
74434;PMS7003;62867;52.038;29.256;2023-02-15T23:31:38;17.4;14.6;8.2
74434;PMS7003;62867;52.038;29.256;2023-02-15T23:37:01;21.2;15.2;9.4
74434;PMS7003;62867;52.038;29.256;2023-02-15T23:41:25;19.2;14.6;8.8
74434;PMS7003;62867;52.038;29.256;2023-02-15T23:47:01;16.6;14.2;8.6
74434;PMS7003;62867;52.038;29.256;2023-02-15T23:51:51;17.6;14.4;8.4
74434;PMS7003;62867;52.038;29.256;2023-02-15T23:56:12;21.2;16;9
